Turbat Weather



Turbat's Current Weather

Temprature 26.756o clear sky

clear sky

Rain: 0 %

Min Temprature26.756o
Max Temprature26.756o
Humidity47
Wind Speed1.03 m/h
Sun Rise06:19:25
Sun Set19:13:25
Current Time: 21-Apr-2019 05:25:04
Lat/Lon: 26, 63.05




Turbat's Geo Location



Turbat's Weather Forecast

Time Overall Temp Min Temp Max Temp Humidity Wind Speed Rain
21-Apr-2019 (Sun)
08:00:00 clear sky 27.230 27.229 27.230 44 0.76 m/h 0 %
11:00:00 clear sky 31.950 31.950 31.950 30 2.7 m/h 0 %
14:00:00 clear sky 36.450 36.450 36.450 19 4.87 m/h 0 %
17:00:00 clear sky 37.450 37.450 37.450 19 6.38 m/h 0 %
20:00:00 clear sky 33.850 33.850 33.850 26 5.68 m/h 0 %
23:00:00 clear sky 31.420 31.420 31.420 32 3.37 m/h 0 %
22-Apr-2019 (Mon)
02:00:00 clear sky 29.270 29.270 29.270 41 1.63 m/h 0 %
05:00:00 clear sky 27.804 27.804 27.804 48 0.9 m/h 0 %
08:00:00 clear sky 28.256 28.256 28.256 46 1.02 m/h 0 %
11:00:00 clear sky 32.920 32.920 32.920 30 2.26 m/h 0 %
14:00:00 clear sky 37.915 37.915 37.915 18 5.48 m/h 0 %
17:00:00 clear sky 37.831 37.831 37.831 22 7.3 m/h 0 %
20:00:00 overcast clouds 33.150 33.150 33.150 36 6.26 m/h 0 %
23:00:00 broken clouds 30.996 30.996 30.996 42 3.05 m/h 0 %
23-Apr-2019 (Tue)
02:00:00 clear sky 29.577 29.577 29.577 47 2.28 m/h 0 %
05:00:00 clear sky 28.176 28.176 28.176 53 1.51 m/h 0 %
08:00:00 few clouds 28.237 28.237 28.237 53 1.13 m/h 0 %
11:00:00 clear sky 32.750 32.750 32.750 37 2.51 m/h 0 %
14:00:00 clear sky 37.350 37.350 37.350 25 5.02 m/h 0 %
17:00:00 clear sky 37.650 37.650 37.650 24 8.11 m/h 0 %
20:00:00 clear sky 33.228 33.228 33.228 35 6.96 m/h 0 %
23:00:00 clear sky 30.550 30.550 30.550 43 4.22 m/h 0 %
24-Apr-2019 (Wed)
02:00:00 clear sky 28.882 28.882 28.882 50 2.77 m/h 0 %
05:00:00 clear sky 27.484 27.484 27.484 58 1.98 m/h 0 %
08:00:00 clear sky 27.650 27.650 27.650 59 1.58 m/h 0 %
11:00:00 clear sky 32.509 32.509 32.509 38 3.85 m/h 0 %
14:00:00 clear sky 36.950 36.950 36.950 22 5.25 m/h 0 %
17:00:00 clear sky 38.350 38.350 38.350 13 7.66 m/h 0 %
20:00:00 clear sky 34.855 34.855 34.855 13 8.24 m/h 0 %
23:00:00 clear sky 31.245 31.245 31.245 17 3.87 m/h 0 %
25-Apr-2019 (Thu)
02:00:00 clear sky 28.250 28.250 28.250 23 1.94 m/h 0 %
05:00:00 clear sky 26.352 26.352 26.352 30 0.46 m/h 0 %
08:00:00 clear sky 28.320 28.320 28.320 16 6.82 m/h 0 %
11:00:00 clear sky 33.090 33.090 33.090 12 6.97 m/h 0 %
14:00:00 clear sky 35.450 35.450 35.450 10 0.77 m/h 0 %
17:00:00 clear sky 37.111 37.111 37.111 10 3.56 m/h 0 %
20:00:00 clear sky 32.525 32.525 32.525 21 7.21 m/h 0 %
23:00:00 clear sky 29.143 29.143 29.143 31 3.31 m/h 0 %
26-Apr-2019 (Fri)
02:00:00 clear sky 27.532 27.532 27.532 35 1.56 m/h 0 %
05:00:00 clear sky 25.736 25.736 25.736 42 1.74 m/h 0 %

Famous Cities (60)